sensor_id;sensor_type;location;lat;lon;timestamp;P1;durP1;ratioP1;P2;durP2;ratioP2
10309;SDS011;5200;43.236;27.986;2023-04-03T00:00:28;1.92;;;1.40;;
10309;SDS011;5200;43.236;27.986;2023-04-03T00:02:56;1.63;;;1.40;;
10309;SDS011;5200;43.236;27.986;2023-04-03T00:05:23;2.33;;;1.65;;
10309;SDS011;5200;43.236;27.986;2023-04-03T00:07:50;1.38;;;1.27;;
10309;SDS011;5200;43.236;27.986;2023-04-03T00:10:17;2.00;;;1.50;;
10309;SDS011;5200;43.236;27.986;2023-04-03T00:12:44;1.67;;;1.20;;
10309;SDS011;5200;43.236;27.986;2023-04-03T00:15:11;3.50;;;2.05;;
10309;SDS011;5200;43.236;27.986;2023-04-03T00:17:38;2.17;;;1.50;;
10309;SDS011;5200;43.236;27.986;2023-04-03T00:20:07;1.80;;;1.60;;
10309;SDS011;5200;43.236;27.986;2023-04-03T00:22:34;2.35;;;1.15;;
10309;SDS011;5200;43.236;27.986;2023-04-03T00:25:01;1.40;;;1.30;;
10309;SDS011;5200;43.236;27.986;2023-04-03T00:27:28;1.55;;;1.45;;
10309;SDS011;5200;43.236;27.986;2023-04-03T00:29:55;1.88;;;1.33;;
10309;SDS011;5200;43.236;27.986;2023-04-03T00:32:22;2.40;;;1.40;;
10309;SDS011;5200;43.236;27.986;2023-04-03T00:34:48;1.40;;;1.30;;
10309;SDS011;5200;43.236;27.986;2023-04-03T00:37:17;2.33;;;2.13;;
10309;SDS011;5200;43.236;27.986;2023-04-03T00:39:43;3.70;;;2.20;;
10309;SDS011;5200;43.236;27.986;2023-04-03T00:42:10;4.40;;;2.80;;
10309;SDS011;5200;43.236;27.986;2023-04-03T00:47:41;3.65;;;3.05;;
10309;SDS011;5200;43.236;27.986;2023-04-03T00:50:08;4.25;;;3.15;;
10309;SDS011;5200;43.236;27.986;2023-04-03T00:52:37;3.05;;;2.40;;
10309;SDS011;5200;43.236;27.986;2023-04-03T00:55:05;2.38;;;2.15;;
10309;SDS011;5200;43.236;27.986;2023-04-03T00:57:34;3.35;;;1.85;;
10309;SDS011;5200;43.236;27.986;2023-04-03T01:00:03;1.88;;;1.60;;
10309;SDS011;5200;43.236;27.986;2023-04-03T01:02:33;1.40;;;1.30;;
10309;SDS011;5200;43.236;27.986;2023-04-03T01:05:00;1.60;;;1.50;;
10309;SDS011;5200;43.236;27.986;2023-04-03T01:07:27;2.35;;;1.60;;
10309;SDS011;5200;43.236;27.986;2023-04-03T01:09:58;1.85;;;1.50;;
10309;SDS011;5200;43.236;27.986;2023-04-03T01:12:27;2.22;;;1.30;;
10309;SDS011;5200;43.236;27.986;2023-04-03T01:14:57;1.30;;;1.20;;
10309;SDS011;5200;43.236;27.986;2023-04-03T01:17:27;1.20;;;1.10;;
10309;SDS011;5200;43.236;27.986;2023-04-03T01:19:58;1.90;;;1.38;;
10309;SDS011;5200;43.236;27.986;2023-04-03T01:22:43;1.67;;;1.10;;
10309;SDS011;5200;43.236;27.986;2023-04-03T01:25:20;2.40;;;1.00;;
10309;SDS011;5200;43.236;27.986;2023-04-03T01:27:46;2.00;;;1.10;;
10309;SDS011;5200;43.236;27.986;2023-04-03T01:30:13;1.10;;;1.00;;
10309;SDS011;5200;43.236;27.986;2023-04-03T01:32:44;3.00;;;0.90;;
10309;SDS011;5200;43.236;27.986;2023-04-03T01:35:11;2.38;;;1.90;;
10309;SDS011;5200;43.236;27.986;2023-04-03T01:37:38;1.60;;;1.17;;
10309;SDS011;5200;43.236;27.986;2023-04-03T01:40:06;1.20;;;1.10;;
10309;SDS011;5200;43.236;27.986;2023-04-03T01:42:33;1.50;;;1.33;;
10309;SDS011;5200;43.236;27.986;2023-04-03T01:45:00;2.15;;;1.30;;
10309;SDS011;5200;43.236;27.986;2023-04-03T01:47:27;1.30;;;1.20;;
10309;SDS011;5200;43.236;27.986;2023-04-03T01:49:55;1.02;;;1.00;;
10309;SDS011;5200;43.236;27.986;2023-04-03T01:52:22;1.02;;;1.02;;
10309;SDS011;5200;43.236;27.986;2023-04-03T01:54:49;1.33;;;0.90;;
10309;SDS011;5200;43.236;27.986;2023-04-03T01:57:16;1.85;;;1.10;;
10309;SDS011;5200;43.236;27.986;2023-04-03T01:59:43;1.15;;;1.05;;
10309;SDS011;5200;43.236;27.986;2023-04-03T02:02:10;1.00;;;0.90;;
10309;SDS011;5200;43.236;27.986;2023-04-03T02:04:39;1.02;;;0.93;;
10309;SDS011;5200;43.236;27.986;2023-04-03T02:07:07;1.10;;;0.93;;
10309;SDS011;5200;43.236;27.986;2023-04-03T02:09:35;2.17;;;0.95;;
10309;SDS011;5200;43.236;27.986;2023-04-03T02:12:01;1.08;;;1.00;;
10309;SDS011;5200;43.236;27.986;2023-04-03T02:14:28;2.13;;;1.15;;
10309;SDS011;5200;43.236;27.986;2023-04-03T02:16:55;1.83;;;1.45;;
10309;SDS011;5200;43.236;27.986;2023-04-03T02:19:22;1.30;;;1.20;;
10309;SDS011;5200;43.236;27.986;2023-04-03T02:21:49;2.00;;;1.08;;
10309;SDS011;5200;43.236;27.986;2023-04-03T02:24:17;2.90;;;1.30;;
10309;SDS011;5200;43.236;27.986;2023-04-03T02:26:44;2.65;;;1.45;;
10309;SDS011;5200;43.236;27.986;2023-04-03T02:29:11;2.30;;;1.38;;
10309;SDS011;5200;43.236;27.986;2023-04-03T02:31:37;1.55;;;1.05;;
10309;SDS011;5200;43.236;27.986;2023-04-03T02:34:04;1.33;;;1.13;;
10309;SDS011;5200;43.236;27.986;2023-04-03T02:36:31;0.90;;;0.90;;
10309;SDS011;5200;43.236;27.986;2023-04-03T02:38:58;1.80;;;1.40;;
10309;SDS011;5200;43.236;27.986;2023-04-03T02:41:26;1.45;;;1.30;;
10309;SDS011;5200;43.236;27.986;2023-04-03T02:43:59;1.88;;;1.70;;
10309;SDS011;5200;43.236;27.986;2023-04-03T02:46:26;3.28;;;2.00;;
10309;SDS011;5200;43.236;27.986;2023-04-03T02:48:53;3.72;;;2.08;;
10309;SDS011;5200;43.236;27.986;2023-04-03T02:51:20;2.22;;;1.85;;
10309;SDS011;5200;43.236;27.986;2023-04-03T02:53:48;4.70;;;2.13;;
10309;SDS011;5200;43.236;27.986;2023-04-03T02:56:15;2.25;;;1.73;;
10309;SDS011;5200;43.236;27.986;2023-04-03T02:58:44;2.72;;;2.53;;
10309;SDS011;5200;43.236;27.986;2023-04-03T03:01:11;6.00;;;3.35;;
10309;SDS011;5200;43.236;27.986;2023-04-03T03:03:38;5.57;;;2.47;;
10309;SDS011;5200;43.236;27.986;2023-04-03T03:06:06;3.28;;;1.80;;
10309;SDS011;5200;43.236;27.986;2023-04-03T03:08:33;2.35;;;2.13;;
10309;SDS011;5200;43.236;27.986;2023-04-03T03:11:01;2.10;;;1.90;;
10309;SDS011;5200;43.236;27.986;2023-04-03T03:13:28;2.33;;;2.08;;
10309;SDS011;5200;43.236;27.986;2023-04-03T03:15:56;2.63;;;1.95;;
10309;SDS011;5200;43.236;27.986;2023-04-03T03:18:23;2.60;;;2.40;;
10309;SDS011;5200;43.236;27.986;2023-04-03T03:20:51;2.17;;;1.98;;
10309;SDS011;5200;43.236;27.986;2023-04-03T03:23:18;5.55;;;2.33;;
10309;SDS011;5200;43.236;27.986;2023-04-03T03:25:45;2.30;;;2.10;;
10309;SDS011;5200;43.236;27.986;2023-04-03T03:28:11;1.80;;;1.70;;
10309;SDS011;5200;43.236;27.986;2023-04-03T03:30:38;2.47;;;1.70;;
10309;SDS011;5200;43.236;27.986;2023-04-03T03:33:06;3.38;;;2.10;;
10309;SDS011;5200;43.236;27.986;2023-04-03T03:35:33;2.17;;;1.90;;
10309;SDS011;5200;43.236;27.986;2023-04-03T03:38:00;1.85;;;1.73;;
10309;SDS011;5200;43.236;27.986;2023-04-03T03:40:27;2.00;;;1.80;;
10309;SDS011;5200;43.236;27.986;2023-04-03T03:42:54;2.28;;;1.80;;
10309;SDS011;5200;43.236;27.986;2023-04-03T03:45:20;2.05;;;1.85;;
10309;SDS011;5200;43.236;27.986;2023-04-03T03:47:47;1.98;;;1.88;;
10309;SDS011;5200;43.236;27.986;2023-04-03T03:50:16;1.88;;;1.77;;
10309;SDS011;5200;43.236;27.986;2023-04-03T03:52:42;1.95;;;1.63;;
10309;SDS011;5200;43.236;27.986;2023-04-03T03:55:09;2.20;;;1.85;;
10309;SDS011;5200;43.236;27.986;2023-04-03T03:57:36;1.73;;;1.63;;
10309;SDS011;5200;43.236;27.986;2023-04-03T04:00:04;1.70;;;1.60;;
10309;SDS011;5200;43.236;27.986;2023-04-03T04:02:32;1.60;;;1.50;;
10309;SDS011;5200;43.236;27.986;2023-04-03T04:04:59;1.95;;;1.83;;
10309;SDS011;5200;43.236;27.986;2023-04-03T04:07:27;3.28;;;1.67;;
10309;SDS011;5200;43.236;27.986;2023-04-03T04:09:54;1.50;;;1.40;;
10309;SDS011;5200;43.236;27.986;2023-04-03T04:12:21;3.83;;;1.83;;
10309;SDS011;5200;43.236;27.986;2023-04-03T04:14:48;1.42;;;1.33;;
10309;SDS011;5200;43.236;27.986;2023-04-03T04:17:14;1.40;;;1.30;;
10309;SDS011;5200;43.236;27.986;2023-04-03T04:19:41;2.35;;;1.75;;
10309;SDS011;5200;43.236;27.986;2023-04-03T04:22:08;2.97;;;1.75;;
10309;SDS011;5200;43.236;27.986;2023-04-03T04:24:36;2.47;;;1.60;;
10309;SDS011;5200;43.236;27.986;2023-04-03T04:27:03;2.05;;;1.63;;
10309;SDS011;5200;43.236;27.986;2023-04-03T04:29:30;1.75;;;1.60;;
10309;SDS011;5200;43.236;27.986;2023-04-03T04:32:00;1.65;;;1.55;;
10309;SDS011;5200;43.236;27.986;2023-04-03T04:34:27;2.13;;;1.90;;
10309;SDS011;5200;43.236;27.986;2023-04-03T04:36:54;2.17;;;1.80;;
10309;SDS011;5200;43.236;27.986;2023-04-03T04:39:21;1.60;;;1.50;;
10309;SDS011;5200;43.236;27.986;2023-04-03T04:41:49;2.63;;;1.83;;
10309;SDS011;5200;43.236;27.986;2023-04-03T04:44:16;2.15;;;1.92;;
10309;SDS011;5200;43.236;27.986;2023-04-03T04:46:43;1.80;;;1.58;;
10309;SDS011;5200;43.236;27.986;2023-04-03T04:49:10;1.67;;;1.50;;
10309;SDS011;5200;43.236;27.986;2023-04-03T04:51:39;2.08;;;1.85;;
10309;SDS011;5200;43.236;27.986;2023-04-03T04:54:06;1.70;;;1.60;;
10309;SDS011;5200;43.236;27.986;2023-04-03T04:56:33;1.67;;;1.58;;
10309;SDS011;5200;43.236;27.986;2023-04-03T04:59:02;2.42;;;1.88;;
10309;SDS011;5200;43.236;27.986;2023-04-03T05:01:28;2.00;;;1.80;;
10309;SDS011;5200;43.236;27.986;2023-04-03T05:03:55;2.08;;;1.88;;
10309;SDS011;5200;43.236;27.986;2023-04-03T05:06:22;3.33;;;1.90;;
10309;SDS011;5200;43.236;27.986;2023-04-03T05:08:49;7.22;;;1.70;;
10309;SDS011;5200;43.236;27.986;2023-04-03T05:11:16;4.40;;;2.10;;
10309;SDS011;5200;43.236;27.986;2023-04-03T05:13:42;3.25;;;2.10;;
10309;SDS011;5200;43.236;27.986;2023-04-03T05:16:11;3.35;;;1.70;;
10309;SDS011;5200;43.236;27.986;2023-04-03T05:18:37;1.88;;;1.70;;
10309;SDS011;5200;43.236;27.986;2023-04-03T05:21:04;2.55;;;1.60;;
10309;SDS011;5200;43.236;27.986;2023-04-03T05:23:31;1.92;;;1.80;;
10309;SDS011;5200;43.236;27.986;2023-04-03T05:25:58;1.50;;;1.40;;
10309;SDS011;5200;43.236;27.986;2023-04-03T05:28:25;2.10;;;1.90;;
10309;SDS011;5200;43.236;27.986;2023-04-03T05:30:55;3.15;;;1.90;;
10309;SDS011;5200;43.236;27.986;2023-04-03T05:33:25;1.95;;;1.63;;
10309;SDS011;5200;43.236;27.986;2023-04-03T05:35:52;1.80;;;1.70;;
10309;SDS011;5200;43.236;27.986;2023-04-03T05:38:19;3.22;;;2.03;;
10309;SDS011;5200;43.236;27.986;2023-04-03T05:40:46;2.25;;;1.80;;
10309;SDS011;5200;43.236;27.986;2023-04-03T05:43:13;2.25;;;2.05;;
10309;SDS011;5200;43.236;27.986;2023-04-03T05:45:39;2.45;;;1.65;;
10309;SDS011;5200;43.236;27.986;2023-04-03T05:48:06;2.78;;;1.92;;
10309;SDS011;5200;43.236;27.986;2023-04-03T05:50:34;3.08;;;1.90;;
10309;SDS011;5200;43.236;27.986;2023-04-03T05:53:06;4.65;;;1.90;;
10309;SDS011;5200;43.236;27.986;2023-04-03T05:55:38;3.55;;;1.70;;
10309;SDS011;5200;43.236;27.986;2023-04-03T05:58:05;3.70;;;2.10;;
10309;SDS011;5200;43.236;27.986;2023-04-03T06:00:32;2.20;;;2.00;;
10309;SDS011;5200;43.236;27.986;2023-04-03T06:02:59;2.30;;;2.08;;
10309;SDS011;5200;43.236;27.986;2023-04-03T06:05:26;4.97;;;2.35;;
10309;SDS011;5200;43.236;27.986;2023-04-03T06:07:55;3.42;;;2.22;;
10309;SDS011;5200;43.236;27.986;2023-04-03T06:10:22;3.05;;;2.65;;
10309;SDS011;5200;43.236;27.986;2023-04-03T06:12:49;3.08;;;2.42;;
10309;SDS011;5200;43.236;27.986;2023-04-03T06:15:16;2.33;;;1.88;;
10309;SDS011;5200;43.236;27.986;2023-04-03T06:17:43;2.00;;;1.90;;
10309;SDS011;5200;43.236;27.986;2023-04-03T06:20:11;2.80;;;2.10;;
10309;SDS011;5200;43.236;27.986;2023-04-03T06:22:38;3.35;;;2.25;;
10309;SDS011;5200;43.236;27.986;2023-04-03T06:25:07;2.15;;;1.95;;
10309;SDS011;5200;43.236;27.986;2023-04-03T06:27:35;2.47;;;2.03;;
10309;SDS011;5200;43.236;27.986;2023-04-03T06:30:02;2.50;;;2.30;;
10309;SDS011;5200;43.236;27.986;2023-04-03T06:32:29;2.08;;;1.88;;
10309;SDS011;5200;43.236;27.986;2023-04-03T06:34:56;3.75;;;2.55;;
10309;SDS011;5200;43.236;27.986;2023-04-03T06:37:23;2.60;;;2.40;;
10309;SDS011;5200;43.236;27.986;2023-04-03T06:39:53;3.03;;;2.83;;
10309;SDS011;5200;43.236;27.986;2023-04-03T06:42:21;3.95;;;1.95;;
10309;SDS011;5200;43.236;27.986;2023-04-03T06:44:48;1.80;;;1.60;;
10309;SDS011;5200;43.236;27.986;2023-04-03T06:47:15;3.30;;;1.65;;
10309;SDS011;5200;43.236;27.986;2023-04-03T06:49:43;1.85;;;1.75;;
10309;SDS011;5200;43.236;27.986;2023-04-03T06:52:10;1.90;;;1.80;;
10309;SDS011;5200;43.236;27.986;2023-04-03T06:54:38;1.70;;;1.60;;
10309;SDS011;5200;43.236;27.986;2023-04-03T06:57:05;1.95;;;1.45;;
10309;SDS011;5200;43.236;27.986;2023-04-03T06:59:34;2.08;;;1.70;;
10309;SDS011;5200;43.236;27.986;2023-04-03T07:02:01;2.60;;;2.40;;
10309;SDS011;5200;43.236;27.986;2023-04-03T07:04:28;11.45;;;3.05;;
10309;SDS011;5200;43.236;27.986;2023-04-03T07:06:55;4.55;;;2.30;;
10309;SDS011;5200;43.236;27.986;2023-04-03T07:09:22;4.47;;;2.60;;
10309;SDS011;5200;43.236;27.986;2023-04-03T07:11:49;2.97;;;2.08;;
10309;SDS011;5200;43.236;27.986;2023-04-03T07:14:16;3.10;;;2.30;;
10309;SDS011;5200;43.236;27.986;2023-04-03T07:16:44;3.60;;;1.80;;
10309;SDS011;5200;43.236;27.986;2023-04-03T07:19:11;3.13;;;2.03;;
10309;SDS011;5200;43.236;27.986;2023-04-03T07:21:38;4.57;;;3.10;;
10309;SDS011;5200;43.236;27.986;2023-04-03T07:24:06;4.47;;;3.15;;
10309;SDS011;5200;43.236;27.986;2023-04-03T07:26:33;3.10;;;2.88;;
10309;SDS011;5200;43.236;27.986;2023-04-03T07:29:00;4.55;;;2.75;;
10309;SDS011;5200;43.236;27.986;2023-04-03T07:31:27;6.93;;;3.15;;
10309;SDS011;5200;43.236;27.986;2023-04-03T07:33:55;4.68;;;3.38;;
10309;SDS011;5200;43.236;27.986;2023-04-03T07:36:22;2.88;;;2.67;;
10309;SDS011;5200;43.236;27.986;2023-04-03T07:38:49;2.67;;;2.28;;
10309;SDS011;5200;43.236;27.986;2023-04-03T07:41:16;3.17;;;2.40;;
10309;SDS011;5200;43.236;27.986;2023-04-03T07:43:45;3.08;;;2.40;;
10309;SDS011;5200;43.236;27.986;2023-04-03T07:46:14;4.35;;;2.40;;
10309;SDS011;5200;43.236;27.986;2023-04-03T07:48:42;2.58;;;2.38;;
10309;SDS011;5200;43.236;27.986;2023-04-03T07:51:11;2.70;;;2.50;;
10309;SDS011;5200;43.236;27.986;2023-04-03T07:53:39;3.67;;;3.00;;
10309;SDS011;5200;43.236;27.986;2023-04-03T07:56:06;3.80;;;3.03;;
10309;SDS011;5200;43.236;27.986;2023-04-03T07:58:33;3.05;;;2.83;;
10309;SDS011;5200;43.236;27.986;2023-04-03T08:01:01;2.90;;;2.70;;
10309;SDS011;5200;43.236;27.986;2023-04-03T08:03:27;2.80;;;2.60;;
10309;SDS011;5200;43.236;27.986;2023-04-03T08:05:54;3.35;;;3.05;;
10309;SDS011;5200;43.236;27.986;2023-04-03T08:08:29;2.92;;;2.70;;
10309;SDS011;5200;43.236;27.986;2023-04-03T08:10:57;6.13;;;2.80;;
10309;SDS011;5200;43.236;27.986;2023-04-03T08:13:25;3.90;;;3.08;;
10309;SDS011;5200;43.236;27.986;2023-04-03T08:15:53;3.90;;;3.10;;
10309;SDS011;5200;43.236;27.986;2023-04-03T08:18:20;3.50;;;2.50;;
10309;SDS011;5200;43.236;27.986;2023-04-03T08:20:49;4.55;;;3.03;;
10309;SDS011;5200;43.236;27.986;2023-04-03T08:23:16;4.53;;;2.78;;
10309;SDS011;5200;43.236;27.986;2023-04-03T08:25:45;3.58;;;2.90;;
10309;SDS011;5200;43.236;27.986;2023-04-03T08:28:12;4.38;;;2.58;;
10309;SDS011;5200;43.236;27.986;2023-04-03T08:30:39;2.47;;;2.28;;
10309;SDS011;5200;43.236;27.986;2023-04-03T08:33:07;4.05;;;2.33;;
10309;SDS011;5200;43.236;27.986;2023-04-03T08:35:37;4.40;;;2.55;;
10309;SDS011;5200;43.236;27.986;2023-04-03T08:38:05;2.47;;;2.28;;
10309;SDS011;5200;43.236;27.986;2023-04-03T08:40:32;6.63;;;3.90;;
10309;SDS011;5200;43.236;27.986;2023-04-03T08:43:03;4.43;;;3.15;;
10309;SDS011;5200;43.236;27.986;2023-04-03T08:45:48;4.63;;;3.42;;
10309;SDS011;5200;43.236;27.986;2023-04-03T08:48:19;4.60;;;2.92;;
10309;SDS011;5200;43.236;27.986;2023-04-03T08:50:48;6.10;;;3.28;;
10309;SDS011;5200;43.236;27.986;2023-04-03T08:53:18;3.03;;;2.83;;
10309;SDS011;5200;43.236;27.986;2023-04-03T08:55:48;3.22;;;2.92;;
10309;SDS011;5200;43.236;27.986;2023-04-03T08:58:20;3.83;;;2.85;;
10309;SDS011;5200;43.236;27.986;2023-04-03T09:00:50;2.95;;;2.65;;
10309;SDS011;5200;43.236;27.986;2023-04-03T09:03:20;3.15;;;2.80;;
10309;SDS011;5200;43.236;27.986;2023-04-03T09:05:49;2.90;;;2.60;;
10309;SDS011;5200;43.236;27.986;2023-04-03T09:08:23;3.17;;;2.88;;
10309;SDS011;5200;43.236;27.986;2023-04-03T09:10:58;4.22;;;3.80;;
10309;SDS011;5200;43.236;27.986;2023-04-03T09:13:34;4.97;;;3.95;;
10309;SDS011;5200;43.236;27.986;2023-04-03T09:16:14;4.22;;;3.83;;
10309;SDS011;5200;43.236;27.986;2023-04-03T09:18:48;4.65;;;4.25;;
10309;SDS011;5200;43.236;27.986;2023-04-03T09:21:21;4.70;;;3.85;;
10309;SDS011;5200;43.236;27.986;2023-04-03T09:23:52;4.97;;;4.55;;
10309;SDS011;5200;43.236;27.986;2023-04-03T09:26:23;4.78;;;4.30;;
10309;SDS011;5200;43.236;27.986;2023-04-03T09:28:54;6.80;;;4.03;;
10309;SDS011;5200;43.236;27.986;2023-04-03T09:31:25;5.07;;;4.57;;
10309;SDS011;5200;43.236;27.986;2023-04-03T09:33:57;4.07;;;3.78;;
10309;SDS011;5200;43.236;27.986;2023-04-03T09:36:38;6.28;;;4.20;;
10309;SDS011;5200;43.236;27.986;2023-04-03T09:39:11;5.63;;;4.38;;
10309;SDS011;5200;43.236;27.986;2023-04-03T09:41:39;5.80;;;4.80;;
10309;SDS011;5200;43.236;27.986;2023-04-03T09:44:19;5.32;;;4.72;;
10309;SDS011;5200;43.236;27.986;2023-04-03T09:46:47;5.65;;;4.78;;
10309;SDS011;5200;43.236;27.986;2023-04-03T09:49:14;5.85;;;5.35;;
10309;SDS011;5200;43.236;27.986;2023-04-03T09:51:41;7.05;;;5.38;;
10309;SDS011;5200;43.236;27.986;2023-04-03T09:54:25;6.53;;;4.88;;
10309;SDS011;5200;43.236;27.986;2023-04-03T09:57:02;7.40;;;4.70;;
10309;SDS011;5200;43.236;27.986;2023-04-03T09:59:34;6.25;;;4.65;;
10309;SDS011;5200;43.236;27.986;2023-04-03T10:02:03;6.93;;;4.38;;
10309;SDS011;5200;43.236;27.986;2023-04-03T10:04:47;6.97;;;4.30;;
10309;SDS011;5200;43.236;27.986;2023-04-03T10:07:28;5.07;;;4.50;;
10309;SDS011;5200;43.236;27.986;2023-04-03T10:09:57;4.97;;;4.47;;
10309;SDS011;5200;43.236;27.986;2023-04-03T10:12:26;4.18;;;3.78;;
10309;SDS011;5200;43.236;27.986;2023-04-03T10:14:56;5.28;;;4.07;;
10309;SDS011;5200;43.236;27.986;2023-04-03T10:17:27;4.75;;;4.18;;
10309;SDS011;5200;43.236;27.986;2023-04-03T10:20:05;3.63;;;3.33;;
10309;SDS011;5200;43.236;27.986;2023-04-03T10:22:40;5.15;;;3.65;;
10309;SDS011;5200;43.236;27.986;2023-04-03T10:25:17;4.57;;;3.55;;
10309;SDS011;5200;43.236;27.986;2023-04-03T10:27:53;7.43;;;3.50;;
10309;SDS011;5200;43.236;27.986;2023-04-03T10:30:31;5.35;;;3.60;;
10309;SDS011;5200;43.236;27.986;2023-04-03T10:35:58;3.00;;;2.78;;
10309;SDS011;5200;43.236;27.986;2023-04-03T10:38:38;3.90;;;2.97;;
10309;SDS011;5200;43.236;27.986;2023-04-03T10:41:15;6.63;;;3.08;;
10309;SDS011;5200;43.236;27.986;2023-04-03T10:43:50;4.85;;;3.40;;
10309;SDS011;5200;43.236;27.986;2023-04-03T10:46:31;2.80;;;2.58;;
10309;SDS011;5200;43.236;27.986;2023-04-03T10:49:05;3.53;;;3.22;;
10309;SDS011;5200;43.236;27.986;2023-04-03T10:51:45;8.70;;;3.20;;
10309;SDS011;5200;43.236;27.986;2023-04-03T10:54:16;3.10;;;2.80;;
10309;SDS011;5200;43.236;27.986;2023-04-03T10:56:50;3.67;;;3.03;;
10309;SDS011;5200;43.236;27.986;2023-04-03T10:59:22;2.67;;;2.42;;
10309;SDS011;5200;43.236;27.986;2023-04-03T11:01:56;4.30;;;3.08;;
10309;SDS011;5200;43.236;27.986;2023-04-03T11:04:27;3.08;;;2.65;;
10309;SDS011;5200;43.236;27.986;2023-04-03T11:07:01;5.07;;;3.15;;
10309;SDS011;5200;43.236;27.986;2023-04-03T11:09:34;2.95;;;2.58;;
10309;SDS011;5200;43.236;27.986;2023-04-03T11:12:05;3.15;;;2.85;;
10309;SDS011;5200;43.236;27.986;2023-04-03T11:14:38;6.43;;;3.30;;
10309;SDS011;5200;43.236;27.986;2023-04-03T11:17:15;4.07;;;3.33;;
10309;SDS011;5200;43.236;27.986;2023-04-03T11:19:51;5.03;;;3.50;;
10309;SDS011;5200;43.236;27.986;2023-04-03T11:22:27;4.38;;;3.45;;
10309;SDS011;5200;43.236;27.986;2023-04-03T11:24:59;5.05;;;3.95;;
10309;SDS011;5200;43.236;27.986;2023-04-03T11:27:35;5.07;;;3.65;;
10309;SDS011;5200;43.236;27.986;2023-04-03T11:30:07;7.88;;;4.22;;
10309;SDS011;5200;43.236;27.986;2023-04-03T11:32:51;4.07;;;3.35;;
10309;SDS011;5200;43.236;27.986;2023-04-03T11:35:37;4.00;;;3.20;;
10309;SDS011;5200;43.236;27.986;2023-04-03T11:38:10;4.22;;;3.50;;
10309;SDS011;5200;43.236;27.986;2023-04-03T11:40:45;3.80;;;3.45;;
10309;SDS011;5200;43.236;27.986;2023-04-03T11:43:23;4.03;;;3.63;;
10309;SDS011;5200;43.236;27.986;2023-04-03T11:45:52;6.50;;;3.70;;
10309;SDS011;5200;43.236;27.986;2023-04-03T11:59:49;4.93;;;4.07;;
10309;SDS011;5200;43.236;27.986;2023-04-03T12:13:42;6.18;;;4.63;;
10309;SDS011;5200;43.236;27.986;2023-04-03T12:16:29;10.15;;;5.75;;
10309;SDS011;5200;43.236;27.986;2023-04-03T12:18:59;5.65;;;4.50;;
10309;SDS011;5200;43.236;27.986;2023-04-03T12:24:33;7.13;;;5.15;;
10309;SDS011;5200;43.236;27.986;2023-04-03T12:27:03;7.68;;;5.78;;
10309;SDS011;5200;43.236;27.986;2023-04-03T12:29:41;5.90;;;5.20;;
10309;SDS011;5200;43.236;27.986;2023-04-03T12:32:17;7.38;;;5.70;;
10309;SDS011;5200;43.236;27.986;2023-04-03T12:34:58;6.05;;;5.18;;
10309;SDS011;5200;43.236;27.986;2023-04-03T12:37:41;8.82;;;6.60;;
10309;SDS011;5200;43.236;27.986;2023-04-03T12:40:23;6.18;;;4.95;;
10309;SDS011;5200;43.236;27.986;2023-04-03T12:43:01;6.63;;;4.85;;
10309;SDS011;5200;43.236;27.986;2023-04-03T12:45:40;6.97;;;5.47;;
10309;SDS011;5200;43.236;27.986;2023-04-03T12:48:12;6.72;;;4.90;;
10309;SDS011;5200;43.236;27.986;2023-04-03T12:50:41;6.90;;;4.65;;
10309;SDS011;5200;43.236;27.986;2023-04-03T12:53:12;5.40;;;4.85;;
10309;SDS011;5200;43.236;27.986;2023-04-03T12:55:44;5.40;;;4.30;;
10309;SDS011;5200;43.236;27.986;2023-04-03T12:58:14;4.40;;;3.97;;
10309;SDS011;5200;43.236;27.986;2023-04-03T13:00:43;4.60;;;3.80;;
10309;SDS011;5200;43.236;27.986;2023-04-03T13:03:19;5.78;;;4.18;;
10309;SDS011;5200;43.236;27.986;2023-04-03T13:05:51;8.10;;;4.45;;
10309;SDS011;5200;43.236;27.986;2023-04-03T13:08:19;6.90;;;5.45;;
10309;SDS011;5200;43.236;27.986;2023-04-03T13:10:50;6.25;;;4.15;;
10309;SDS011;5200;43.236;27.986;2023-04-03T13:13:21;5.40;;;4.60;;
10309;SDS011;5200;43.236;27.986;2023-04-03T13:15:49;5.20;;;4.18;;
10309;SDS011;5200;43.236;27.986;2023-04-03T13:18:25;8.00;;;4.60;;
10309;SDS011;5200;43.236;27.986;2023-04-03T13:20:53;6.50;;;4.63;;
10309;SDS011;5200;43.236;27.986;2023-04-03T13:23:26;8.63;;;5.38;;
10309;SDS011;5200;43.236;27.986;2023-04-03T13:25:54;15.63;;;10.27;;
10309;SDS011;5200;43.236;27.986;2023-04-03T13:28:26;14.20;;;9.43;;
10309;SDS011;5200;43.236;27.986;2023-04-03T13:30:54;8.40;;;5.93;;
10309;SDS011;5200;43.236;27.986;2023-04-03T13:33:25;7.72;;;4.60;;
10309;SDS011;5200;43.236;27.986;2023-04-03T13:35:54;8.95;;;5.38;;
10309;SDS011;5200;43.236;27.986;2023-04-03T13:38:23;10.55;;;4.80;;
10309;SDS011;5200;43.236;27.986;2023-04-03T13:40:52;7.80;;;5.53;;
10309;SDS011;5200;43.236;27.986;2023-04-03T13:43:23;7.93;;;6.13;;
10309;SDS011;5200;43.236;27.986;2023-04-03T13:45:56;8.82;;;6.00;;
10309;SDS011;5200;43.236;27.986;2023-04-03T13:48:34;17.75;;;9.82;;
10309;SDS011;5200;43.236;27.986;2023-04-03T13:51:03;24.30;;;12.98;;
10309;SDS011;5200;43.236;27.986;2023-04-03T13:53:32;8.70;;;6.47;;
10309;SDS011;5200;43.236;27.986;2023-04-03T13:56:07;10.60;;;6.68;;
10309;SDS011;5200;43.236;27.986;2023-04-03T13:58:36;14.27;;;7.13;;
10309;SDS011;5200;43.236;27.986;2023-04-03T14:01:08;8.10;;;5.28;;
10309;SDS011;5200;43.236;27.986;2023-04-03T14:03:44;5.53;;;5.00;;
10309;SDS011;5200;43.236;27.986;2023-04-03T14:06:13;9.30;;;6.32;;
10309;SDS011;5200;43.236;27.986;2023-04-03T14:08:42;6.22;;;4.85;;
10309;SDS011;5200;43.236;27.986;2023-04-03T14:11:15;8.55;;;5.65;;
10309;SDS011;5200;43.236;27.986;2023-04-03T14:13:44;10.27;;;7.07;;
10309;SDS011;5200;43.236;27.986;2023-04-03T14:16:15;12.63;;;7.38;;
10309;SDS011;5200;43.236;27.986;2023-04-03T14:18:44;5.25;;;4.20;;
10309;SDS011;5200;43.236;27.986;2023-04-03T14:21:11;8.35;;;5.32;;
10309;SDS011;5200;43.236;27.986;2023-04-03T14:23:39;6.32;;;4.55;;
10309;SDS011;5200;43.236;27.986;2023-04-03T14:26:08;7.10;;;4.60;;
10309;SDS011;5200;43.236;27.986;2023-04-03T14:28:39;7.25;;;5.50;;
10309;SDS011;5200;43.236;27.986;2023-04-03T14:31:06;6.43;;;4.97;;
10309;SDS011;5200;43.236;27.986;2023-04-03T14:33:33;7.32;;;5.78;;
10309;SDS011;5200;43.236;27.986;2023-04-03T14:36:04;7.55;;;5.97;;
10309;SDS011;5200;43.236;27.986;2023-04-03T14:38:37;7.72;;;5.45;;
10309;SDS011;5200;43.236;27.986;2023-04-03T14:41:04;7.20;;;5.50;;
10309;SDS011;5200;43.236;27.986;2023-04-03T14:43:31;7.20;;;5.25;;
10309;SDS011;5200;43.236;27.986;2023-04-03T14:46:00;8.52;;;5.60;;
10309;SDS011;5200;43.236;27.986;2023-04-03T14:48:27;6.75;;;5.40;;
10309;SDS011;5200;43.236;27.986;2023-04-03T14:50:56;8.00;;;5.18;;
10309;SDS011;5200;43.236;27.986;2023-04-03T14:53:23;6.95;;;5.22;;
10309;SDS011;5200;43.236;27.986;2023-04-03T14:55:51;6.22;;;4.80;;
10309;SDS011;5200;43.236;27.986;2023-04-03T14:58:19;7.40;;;5.40;;
10309;SDS011;5200;43.236;27.986;2023-04-03T15:00:48;6.07;;;4.80;;
10309;SDS011;5200;43.236;27.986;2023-04-03T15:03:17;8.80;;;5.60;;
10309;SDS011;5200;43.236;27.986;2023-04-03T15:05:47;6.43;;;4.70;;
10309;SDS011;5200;43.236;27.986;2023-04-03T15:08:17;7.03;;;5.43;;
10309;SDS011;5200;43.236;27.986;2023-04-03T15:10:46;6.47;;;5.18;;
10309;SDS011;5200;43.236;27.986;2023-04-03T15:13:13;6.65;;;4.82;;
10309;SDS011;5200;43.236;27.986;2023-04-03T15:15:40;9.00;;;5.53;;
10309;SDS011;5200;43.236;27.986;2023-04-03T15:18:09;7.82;;;5.55;;
10309;SDS011;5200;43.236;27.986;2023-04-03T15:20:41;7.32;;;5.20;;
10309;SDS011;5200;43.236;27.986;2023-04-03T15:23:09;11.85;;;5.90;;
10309;SDS011;5200;43.236;27.986;2023-04-03T15:25:37;9.23;;;6.43;;
10309;SDS011;5200;43.236;27.986;2023-04-03T15:28:04;7.00;;;5.63;;
10309;SDS011;5200;43.236;27.986;2023-04-03T15:30:32;7.30;;;5.97;;
10309;SDS011;5200;43.236;27.986;2023-04-03T15:33:02;8.95;;;6.07;;